Archival Weather

Alykel

Alykel, Russia (UOOO)

Report from: Tuesday, November 21, 2023 2:00 AM UTC
Current time: Friday, July 19, 2024 2:56 AM UTC

Current weather – Weather history – Daily summaries
Weather forecast

Temperature-27.0°C (-16.6°F)
Wind chill-35.9°C (-32.7°F)
Dew point-29.0°C (-20.2°F)
Winds 5.8 kts (3 m/s, 6.7 mph) South (170°)
Visibility5 mi. (8 km)
Clouds Ceiling: Broken clouds 3,100 ft. (945 m)
Altimeter30.12 in.Hg (1020 mB)
Precip. events QF 1:28 PM
Relative humidity83 %
Density altitude-5,693 ft. (-1,735 m)
Remarks No significant changes expected in the next two hours
Flight conditions Marginal Visual Meteorological Conditions
Raw dataUOOO 210200Z 17003MPS 8000 BKN031 M27/M29 Q1020 R19/35//60 NOSIG RMK QFE748/0998
An error has occurred. This application may no longer respond until reloaded. Reload 🗙